Station History

Weather Underground - logo

Station Historical Data
Daily Summary for January 11, 2018 Units:  Both    English   Metric
« Previous Day
Next Day »
Daily Weekly Monthly Yearly Custom
  High: Low: Average:
Temperature: 65.1 °F /  18.4 °C 44.7 °F /  7.1 °C 53.2 °F /  11.8 °C
Dew Point: 53.3 °F /  11.8 °C 43.6 °F /  6.4 °C 49.1 °F /  9.5 °C
Humidity: 97 % 62 % 87 %
Wind Speed: 3.5 mph /  5.6 km/h - 0.3 mph /  0.5 km/h
Wind Gust: 3.5 mph /  5.6 km/h - -
Wind:- - South
Pressure: 30.39 in /  1029 hPa 30.25 in /  1024.3 hPa -
Precipitation: 0.00 in /  0 mm    
Historical Graphs
 
 
Tabular Data for January 11, 2018
Time Temperature Dew Point Pressure Wind Wind Speed Wind Gust Humidity Rainfall Rate (Hourly)
00:04 46.2 °F /  7.9 °C 45.1 °F /  7.3 °C 30.25 in /  1024.3 hPa Calm     96 % 0.00 in /  0 mm
00:09 46.3 °F /  7.9 °C 45.2 °F /  7.3 °C 30.25 in /  1024.3 hPa Calm     96 % 0.00 in /  0 mm
00:15 46.2 °F /  7.9 °C 45.1 °F /  7.3 °C 30.25 in /  1024.3 hPa Calm     96 % 0.00 in /  0 mm
00:24 45.8 °F /  7.7 °C 44.4 °F /  6.9 °C 30.25 in /  1024.3 hPa Calm     95 % 0.00 in /  0 mm
00:36 45.2 °F /  7.3 °C 43.9 °F /  6.6 °C 30.26 in /  1024.6 hPa Calm     95 % 0.00 in /  0 mm
00:42 44.9 °F /  7.2 °C 43.6 °F /  6.4 °C 30.26 in /  1024.6 hPa Calm     95 % 0.00 in /  0 mm
01:00 44.7 °F /  7.1 °C 43.6 °F /  6.4 °C 30.25 in /  1024.3 hPa Calm     96 % 0.00 in /  0 mm
01:08 44.9 °F /  7.2 °C 43.8 °F /  6.6 °C 30.26 in /  1024.6 hPa Calm     96 % 0.00 in /  0 mm
01:16 45.1 °F /  7.3 °C 44.0 °F /  6.7 °C 30.26 in /  1024.6 hPa Calm     96 % 0.00 in /  0 mm
01:27 45.8 °F /  7.7 °C 44.7 °F /  7.1 °C 30.27 in /  1024.9 hPa Calm     96 % 0.00 in /  0 mm
01:37 46.1 °F /  7.8 °C 45.0 °F /  7.2 °C 30.27 in /  1024.9 hPa Calm     96 % 0.00 in /  0 mm
01:49 46.4 °F /  8 °C 45.3 °F /  7.4 °C 30.28 in /  1025.3 hPa Calm     96 % 0.00 in /  0 mm
02:01 46.8 °F /  8.2 °C 45.7 °F /  7.6 °C 30.28 in /  1025.3 hPa ESE 1.2 mph /  1.9 km/h   96 % 0.00 in /  0 mm
02:08 47.1 °F /  8.4 °C 46.0 °F /  7.8 °C 30.28 in /  1025.3 hPa Calm     96 % 0.00 in /  0 mm
02:14 47.3 °F /  8.5 °C 46.2 °F /  7.9 °C 30.28 in /  1025.3 hPa Calm     96 % 0.00 in /  0 mm
02:20 47.6 °F /  8.7 °C 46.5 °F /  8.1 °C 30.28 in /  1025.3 hPa Calm     96 % 0.00 in /  0 mm
02:36 47.7 °F /  8.7 °C 46.6 °F /  8.1 °C 30.29 in /  1025.6 hPa Calm     96 % 0.00 in /  0 mm
02:41 47.8 °F /  8.8 °C 46.7 °F /  8.2 °C 30.28 in /  1025.3 hPa Calm     96 % 0.00 in /  0 mm
02:47 47.8 °F /  8.8 °C 46.7 °F /  8.2 °C 30.29 in /  1025.6 hPa Calm     96 % 0.00 in /  0 mm
02:53 47.9 °F /  8.8 °C 46.8 °F /  8.2 °C 30.29 in /  1025.6 hPa Calm     96 % 0.00 in /  0 mm
03:03 48.0 °F /  8.9 °C 46.9 °F /  8.3 °C 30.28 in /  1025.3 hPa Calm     96 % 0.00 in /  0 mm
03:12 48.0 °F /  8.9 °C 46.9 °F /  8.3 °C 30.28 in /  1025.3 hPa Calm     96 % 0.00 in /  0 mm
03:17 48.0 °F /  8.9 °C 46.9 °F /  8.3 °C 30.28 in /  1025.3 hPa Calm     96 % 0.00 in /  0 mm
03:22 48.0 °F /  8.9 °C 46.9 °F /  8.3 °C 30.28 in /  1025.3 hPa Calm     96 % 0.00 in /  0 mm
03:30 48.0 °F /  8.9 °C 46.9 °F /  8.3 °C 30.28 in /  1025.3 hPa Calm     96 % 0.00 in /  0 mm
03:45 48.1 °F /  8.9 °C 47.0 °F /  8.3 °C 30.28 in /  1025.3 hPa Calm     96 % 0.00 in /  0 mm
03:55 47.9 °F /  8.8 °C 46.8 °F /  8.2 °C 30.28 in /  1025.3 hPa Calm     96 % 0.00 in /  0 mm
04:00 47.9 °F /  8.8 °C 46.8 °F /  8.2 °C 30.28 in /  1025.3 hPa Calm     96 % 0.00 in /  0 mm
04:07 47.7 °F /  8.7 °C 46.6 °F /  8.1 °C 30.27 in /  1024.9 hPa Calm     96 % 0.00 in /  0 mm
04:23 47.4 °F /  8.6 °C 46.3 °F /  7.9 °C 30.27 in /  1024.9 hPa Calm     96 % 0.00 in /  0 mm
04:31 47.0 °F /  8.3 °C 45.6 °F /  7.6 °C 30.27 in /  1024.9 hPa Calm     95 % 0.00 in /  0 mm
04:38 46.9 °F /  8.3 °C 45.8 °F /  7.7 °C 30.27 in /  1024.9 hPa Calm     96 % 0.00 in /  0 mm
04:46 46.6 °F /  8.1 °C 45.5 °F /  7.5 °C 30.28 in /  1025.3 hPa Calm     96 % 0.00 in /  0 mm
04:55 46.3 °F /  7.9 °C 45.2 °F /  7.3 °C 30.28 in /  1025.3 hPa Calm     96 % 0.00 in /  0 mm
05:15 46.1 °F /  7.8 °C 45.0 °F /  7.2 °C 30.29 in /  1025.6 hPa Calm     96 % 0.00 in /  0 mm
05:25 46.7 °F /  8.2 °C 45.6 °F /  7.6 °C 30.29 in /  1025.6 hPa Calm     96 % 0.00 in /  0 mm
05:31 47.1 °F /  8.4 °C 46.3 °F /  7.9 °C 30.30 in /  1026 hPa Calm     97 % 0.00 in /  0 mm
05:39 47.5 °F /  8.6 °C 46.7 °F /  8.2 °C 30.30 in /  1026 hPa Calm     97 % 0.00 in /  0 mm
05:45 47.8 °F /  8.8 °C 47.0 °F /  8.3 °C 30.30 in /  1026 hPa Calm     97 % 0.00 in /  0 mm
05:56 48.3 °F /  9.1 °C 47.2 °F /  8.4 °C 30.30 in /  1026 hPa Calm     96 % 0.00 in /  0 mm
06:05 48.5 °F /  9.2 °C 47.4 °F /  8.6 °C 30.31 in /  1026.3 hPa Calm     96 % 0.00 in /  0 mm
06:13 48.7 °F /  9.3 °C 47.6 °F /  8.7 °C 30.31 in /  1026.3 hPa Calm     96 % 0.00 in /  0 mm
06:25 49.1 °F /  9.5 °C 47.7 °F /  8.7 °C 30.32 in /  1026.6 hPa Calm     95 % 0.00 in /  0 mm
06:32 49.2 °F /  9.6 °C 47.8 °F /  8.8 °C 30.32 in /  1026.6 hPa Calm     95 % 0.00 in /  0 mm
06:37 49.3 °F /  9.6 °C 47.9 °F /  8.8 °C 30.32 in /  1026.6 hPa Calm     95 % 0.00 in /  0 mm
06:48 49.4 °F /  9.7 °C 48.0 °F /  8.9 °C 30.32 in /  1026.6 hPa Calm     95 % 0.00 in /  0 mm
06:53 49.5 °F /  9.7 °C 48.1 °F /  8.9 °C 30.32 in /  1026.6 hPa Calm     95 % 0.00 in /  0 mm
07:03 49.9 °F /  9.9 °C 48.5 °F /  9.2 °C 30.32 in /  1026.6 hPa Calm     95 % 0.00 in /  0 mm
07:19 50.1 °F /  10.1 °C 48.7 °F /  9.3 °C 30.32 in /  1026.6 hPa Calm     95 % 0.00 in /  0 mm
07:30 50.3 °F /  10.2 °C 48.9 °F /  9.4 °C 30.32 in /  1026.6 hPa Calm     95 % 0.00 in /  0 mm
07:36 50.4 °F /  10.2 °C 49.0 °F /  9.4 °C 30.32 in /  1026.6 hPa Calm     95 % 0.00 in /  0 mm
07:49 50.3 °F /  10.2 °C 48.9 °F /  9.4 °C 30.32 in /  1026.6 hPa Calm     95 % 0.00 in /  0 mm
07:56 50.4 °F /  10.2 °C 49.0 °F /  9.4 °C 30.33 in /  1027 hPa Calm     95 % 0.00 in /  0 mm
08:02 50.5 °F /  10.3 °C 49.1 °F /  9.5 °C 30.33 in /  1027 hPa Calm     95 % 0.00 in /  0 mm
08:07 50.6 °F /  10.3 °C 49.2 °F /  9.6 °C 30.33 in /  1027 hPa NE 1.2 mph /  1.9 km/h   95 % 0.00 in /  0 mm
08:14 50.7 °F /  10.4 °C 49.3 °F /  9.6 °C 30.33 in /  1027 hPa Calm     95 % 0.00 in /  0 mm
08:20 50.7 °F /  10.4 °C 49.3 °F /  9.6 °C 30.34 in /  1027.3 hPa NE 1.0 mph /  1.6 km/h   95 % 0.00 in /  0 mm
08:37 50.9 °F /  10.5 °C 49.2 °F /  9.6 °C 30.35 in /  1027.7 hPa Calm     94 % 0.00 in /  0 mm
08:49 51.3 °F /  10.7 °C 49.6 °F /  9.8 °C 30.36 in /  1028 hPa Calm     94 % 0.00 in /  0 mm
08:56 51.6 °F /  10.9 °C 49.9 °F /  9.9 °C 30.37 in /  1028.3 hPa Calm     94 % 0.00 in /  0 mm
09:14 52.4 °F /  11.3 °C 50.7 °F /  10.4 °C 30.38 in /  1028.7 hPa Calm     94 % 0.00 in /  0 mm
09:20 52.9 °F /  11.6 °C 50.9 °F /  10.5 °C 30.38 in /  1028.7 hPa NNE 1.2 mph /  1.9 km/h   93 % 0.00 in /  0 mm
09:26 53.6 °F /  12 °C 51.6 °F /  10.9 °C 30.38 in /  1028.7 hPa Calm     93 % 0.00 in /  0 mm
09:32 54.5 °F /  12.5 °C 52.2 °F /  11.2 °C 30.39 in /  1029 hPa Calm     92 % 0.00 in /  0 mm
09:46 56.0 °F /  13.3 °C 53.1 °F /  11.7 °C 30.39 in /  1029 hPa Calm     90 % 0.00 in /  0 mm
09:54 56.5 °F /  13.6 °C 52.7 °F /  11.5 °C 30.39 in /  1029 hPa Calm     87 % 0.00 in /  0 mm
10:05 57.0 °F /  13.9 °C 53.2 °F /  11.8 °C 30.38 in /  1028.7 hPa Calm     87 % 0.00 in /  0 mm
10:14 57.3 °F /  14.1 °C 53.1 °F /  11.7 °C 30.38 in /  1028.7 hPa SE 1.2 mph /  1.9 km/h 1.2 mph /  1.9 km/h 86 % 0.00 in /  0 mm
10:57 58.9 °F /  14.9 °C 53.1 °F /  11.7 °C 30.37 in /  1028.3 hPa Calm     81 % 0.00 in /  0 mm
11:02 58.8 °F /  14.9 °C 53.3 °F /  11.8 °C 30.37 in /  1028.3 hPa NW 1.2 mph /  1.9 km/h   82 % 0.00 in /  0 mm
11:07 58.3 °F /  14.6 °C 53.2 °F /  11.8 °C 30.37 in /  1028.3 hPa WNW 1.2 mph /  1.9 km/h   83 % 0.00 in /  0 mm
11:33 57.8 °F /  14.3 °C 53.0 °F /  11.7 °C 30.35 in /  1027.7 hPa Calm     84 % 0.00 in /  0 mm
11:46 58.4 °F /  14.7 °C 53.3 °F /  11.8 °C 30.34 in /  1027.3 hPa Calm     83 % 0.00 in /  0 mm
12:07 59.6 °F /  15.3 °C 52.7 °F /  11.5 °C 30.33 in /  1027 hPa Calm     78 % 0.00 in /  0 mm
12:16 60.2 °F /  15.7 °C 52.2 °F /  11.2 °C 30.33 in /  1027 hPa Calm     75 % 0.00 in /  0 mm
12:32 61.1 °F /  16.2 °C 52.7 °F /  11.5 °C 30.32 in /  1026.6 hPa WNW 1.2 mph /  1.9 km/h 1.2 mph /  1.9 km/h 74 % 0.00 in /  0 mm
12:37 61.2 °F /  16.2 °C 52.5 °F /  11.4 °C 30.32 in /  1026.6 hPa WNW 1.2 mph /  1.9 km/h   73 % 0.00 in /  0 mm
12:43 61.4 °F /  16.3 °C 51.9 °F /  11.1 °C 30.32 in /  1026.6 hPa WNW 2.3 mph /  3.7 km/h 2.3 mph /  3.7 km/h 71 % 0.00 in /  0 mm
12:48 61.6 °F /  16.4 °C 52.9 °F /  11.6 °C 30.32 in /  1026.6 hPa SSE 1.2 mph /  1.9 km/h 1.2 mph /  1.9 km/h 73 % 0.00 in /  0 mm
12:53 62.2 °F /  16.8 °C 53.1 °F /  11.7 °C 30.31 in /  1026.3 hPa SSE 2.3 mph /  3.7 km/h   72 % 0.00 in /  0 mm
12:58 62.6 °F /  17 °C 52.7 °F /  11.5 °C 30.31 in /  1026.3 hPa NNW 1.2 mph /  1.9 km/h 1.2 mph /  1.9 km/h 70 % 0.00 in /  0 mm
13:04 62.6 °F /  17 °C 52.7 °F /  11.5 °C 30.31 in /  1026.3 hPa SSE 1.2 mph /  1.9 km/h 1.2 mph /  1.9 km/h 70 % 0.00 in /  0 mm
13:09 63.2 °F /  17.3 °C 52.9 °F /  11.6 °C 30.31 in /  1026.3 hPa SSE 1.2 mph /  1.9 km/h 1.2 mph /  1.9 km/h 69 % 0.00 in /  0 mm
13:15 63.4 °F /  17.4 °C 52.7 °F /  11.5 °C 30.31 in /  1026.3 hPa SSW 1.2 mph /  1.9 km/h 1.2 mph /  1.9 km/h 68 % 0.00 in /  0 mm
13:20 63.7 °F /  17.6 °C 52.1 °F /  11.2 °C 30.30 in /  1026 hPa NW 2.3 mph /  3.7 km/h 2.3 mph /  3.7 km/h 66 % 0.00 in /  0 mm
13:32 63.8 °F /  17.7 °C 52.2 °F /  11.2 °C 30.30 in /  1026 hPa SE 1.2 mph /  1.9 km/h   66 % 0.00 in /  0 mm
13:36 64.1 °F /  17.8 °C 52.1 °F /  11.2 °C 30.30 in /  1026 hPa Calm     65 % 0.00 in /  0 mm
14:01 65.0 °F /  18.3 °C 52.9 °F /  11.6 °C 30.29 in /  1025.6 hPa ESE 3.5 mph /  5.6 km/h 3.5 mph /  5.6 km/h 65 % 0.00 in /  0 mm
14:12 65.1 °F /  18.4 °C 51.8 °F /  11 °C 30.29 in /  1025.6 hPa Calm   0.1 mph /  0.2 km/h 62 % 0.00 in /  0 mm
14:17 65.1 °F /  18.4 °C 51.8 °F /  11 °C 30.29 in /  1025.6 hPa SE 1.0 mph /  1.6 km/h 1.0 mph /  1.6 km/h 62 % 0.00 in /  0 mm
14:23 64.9 °F /  18.3 °C 51.6 °F /  10.9 °C 30.29 in /  1025.6 hPa NNW 1.2 mph /  1.9 km/h 1.2 mph /  1.9 km/h 62 % 0.00 in /  0 mm
14:31 64.6 °F /  18.1 °C 51.7 °F /  10.9 °C 30.29 in /  1025.6 hPa East 2.0 mph /  3.2 km/h 2.0 mph /  3.2 km/h 63 % 0.00 in /  0 mm
14:32 64.5 °F /  18.1 °C 51.6 °F /  10.9 °C 30.29 in /  1025.6 hPa SE 2.3 mph /  3.7 km/h 2.3 mph /  3.7 km/h 63 % 0.00 in /  0 mm
15:01 63.1 °F /  17.3 °C 51.1 °F /  10.6 °C 30.28 in /  1025.3 hPa NW 1.2 mph /  1.9 km/h   65 % 0.00 in /  0 mm
15:03 63.0 °F /  17.2 °C 51.5 °F /  10.8 °C 30.28 in /  1025.3 hPa SSE 2.3 mph /  3.7 km/h 2.3 mph /  3.7 km/h 66 % 0.00 in /  0 mm
15:16 62.7 °F /  17.1 °C 51.2 °F /  10.7 °C 30.28 in /  1025.3 hPa Calm     66 % 0.00 in /  0 mm
15:22 62.6 °F /  17 °C 51.1 °F /  10.6 °C 30.28 in /  1025.3 hPa Calm     66 % 0.00 in /  0 mm
15:30 62.4 °F /  16.9 °C 51.3 °F /  10.7 °C 30.28 in /  1025.3 hPa Calm     67 % 0.00 in /  0 mm
15:40 62.4 °F /  16.9 °C 51.3 °F /  10.7 °C 30.28 in /  1025.3 hPa Calm     67 % 0.00 in /  0 mm
15:42 62.4 °F /  16.9 °C 51.3 °F /  10.7 °C 30.28 in /  1025.3 hPa Calm     67 % 0.00 in /  0 mm
15:51 62.0 °F /  16.7 °C 50.9 °F /  10.5 °C 30.28 in /  1025.3 hPa Calm     67 % 0.00 in /  0 mm
16:01 61.7 °F /  16.5 °C 51.0 °F /  10.6 °C 30.28 in /  1025.3 hPa Calm     68 % 0.00 in /  0 mm
16:06 61.7 °F /  16.5 °C 51.0 °F /  10.6 °C 30.28 in /  1025.3 hPa Calm     68 % 0.00 in /  0 mm
16:12 61.6 °F /  16.4 °C 51.3 °F /  10.7 °C 30.28 in /  1025.3 hPa Calm     69 % 0.00 in /  0 mm
16:17 61.4 °F /  16.3 °C 51.1 °F /  10.6 °C 30.28 in /  1025.3 hPa Calm     69 % 0.00 in /  0 mm
16:28 60.9 °F /  16.1 °C 51.4 °F /  10.8 °C 30.28 in /  1025.3 hPa Calm     71 % 0.00 in /  0 mm
16:34 60.6 °F /  15.9 °C 51.5 °F /  10.8 °C 30.28 in /  1025.3 hPa Calm     72 % 0.00 in /  0 mm
16:48 59.7 °F /  15.4 °C 51.0 °F /  10.6 °C 30.28 in /  1025.3 hPa Calm     73 % 0.00 in /  0 mm
17:09 57.8 °F /  14.3 °C 51.0 °F /  10.6 °C 30.28 in /  1025.3 hPa Calm     78 % 0.00 in /  0 mm
17:24 56.5 °F /  13.6 °C 50.7 °F /  10.4 °C 30.29 in /  1025.6 hPa Calm     81 % 0.00 in /  0 mm
17:29 56.3 °F /  13.5 °C 50.9 °F /  10.5 °C 30.29 in /  1025.6 hPa Calm     82 % 0.00 in /  0 mm
17:34 55.9 °F /  13.3 °C 50.8 °F /  10.4 °C 30.29 in /  1025.6 hPa Calm     83 % 0.00 in /  0 mm
17:47 55.2 °F /  12.9 °C 50.8 °F /  10.4 °C 30.29 in /  1025.6 hPa Calm     85 % 0.00 in /  0 mm
17:49 55.1 °F /  12.8 °C 50.7 °F /  10.4 °C 30.29 in /  1025.6 hPa Calm     85 % 0.00 in /  0 mm
17:59 54.9 °F /  12.7 °C 50.5 °F /  10.3 °C 30.30 in /  1026 hPa Calm     85 % 0.00 in /  0 mm
18:04 54.7 °F /  12.6 °C 50.6 °F /  10.3 °C 30.30 in /  1026 hPa Calm     86 % 0.00 in /  0 mm
18:19 54.6 °F /  12.6 °C 50.5 °F /  10.3 °C 30.30 in /  1026 hPa Calm     86 % 0.00 in /  0 mm
18:24 54.3 °F /  12.4 °C 50.2 °F /  10.1 °C 30.30 in /  1026 hPa Calm     86 % 0.00 in /  0 mm
18:37 53.4 °F /  11.9 °C 49.6 °F /  9.8 °C 30.30 in /  1026 hPa Calm     87 % 0.00 in /  0 mm
18:43 53.1 °F /  11.7 °C 49.6 °F /  9.8 °C 30.30 in /  1026 hPa Calm     88 % 0.00 in /  0 mm
18:49 52.8 °F /  11.6 °C 49.3 °F /  9.6 °C 30.30 in /  1026 hPa Calm     88 % 0.00 in /  0 mm
18:55 52.4 °F /  11.3 °C 49.3 °F /  9.6 °C 30.31 in /  1026.3 hPa Calm     89 % 0.00 in /  0 mm
19:02 52.1 °F /  11.2 °C 49.3 °F /  9.6 °C 30.31 in /  1026.3 hPa Calm     90 % 0.00 in /  0 mm
19:14 51.9 °F /  11.1 °C 49.1 °F /  9.5 °C 30.31 in /  1026.3 hPa Calm     90 % 0.00 in /  0 mm
19:24 51.5 °F /  10.8 °C 48.7 °F /  9.3 °C 30.31 in /  1026.3 hPa Calm     90 % 0.00 in /  0 mm
19:30 51.5 °F /  10.8 °C 48.7 °F /  9.3 °C 30.31 in /  1026.3 hPa Calm     90 % 0.00 in /  0 mm
19:39 51.2 °F /  10.7 °C 48.7 °F /  9.3 °C 30.31 in /  1026.3 hPa Calm     91 % 0.00 in /  0 mm
19:44 51.0 °F /  10.6 °C 48.5 °F /  9.2 °C 30.31 in /  1026.3 hPa Calm     91 % 0.00 in /  0 mm
20:12 50.7 °F /  10.4 °C 48.5 °F /  9.2 °C 30.32 in /  1026.6 hPa Calm     92 % 0.00 in /  0 mm
20:19 50.9 °F /  10.5 °C 48.9 °F /  9.4 °C 30.31 in /  1026.3 hPa Calm     93 % 0.00 in /  0 mm
20:25 51.0 °F /  10.6 °C 48.8 °F /  9.3 °C 30.32 in /  1026.6 hPa Calm     92 % 0.00 in /  0 mm
20:34 51.0 °F /  10.6 °C 48.8 °F /  9.3 °C 30.32 in /  1026.6 hPa Calm     92 % 0.00 in /  0 mm
20:45 51.0 °F /  10.6 °C 48.8 °F /  9.3 °C 30.32 in /  1026.6 hPa Calm     92 % 0.00 in /  0 mm
20:53 51.2 °F /  10.7 °C 49.0 °F /  9.4 °C 30.33 in /  1027 hPa Calm     92 % 0.00 in /  0 mm
20:59 51.3 °F /  10.7 °C 49.3 °F /  9.6 °C 30.33 in /  1027 hPa Calm     93 % 0.00 in /  0 mm
21:06 51.7 °F /  10.9 °C 49.7 °F /  9.8 °C 30.33 in /  1027 hPa Calm     93 % 0.00 in /  0 mm
21:15 52.0 °F /  11.1 °C 49.7 °F /  9.8 °C 30.33 in /  1027 hPa Calm     92 % 0.00 in /  0 mm
21:24 51.9 °F /  11.1 °C 49.6 °F /  9.8 °C 30.33 in /  1027 hPa Calm     92 % 0.00 in /  0 mm
21:29 51.7 °F /  10.9 °C 49.5 °F /  9.7 °C 30.33 in /  1027 hPa Calm     92 % 0.00 in /  0 mm
21:43 51.1 °F /  10.6 °C 48.9 °F /  9.4 °C 30.33 in /  1027 hPa Calm     92 % 0.00 in /  0 mm
21:52 50.7 °F /  10.4 °C 48.5 °F /  9.2 °C 30.33 in /  1027 hPa Calm     92 % 0.00 in /  0 mm
22:00 50.5 °F /  10.3 °C 48.3 °F /  9.1 °C 30.33 in /  1027 hPa Calm     92 % 0.00 in /  0 mm
22:08 50.3 °F /  10.2 °C 48.1 °F /  8.9 °C 30.33 in /  1027 hPa Calm     92 % 0.00 in /  0 mm
22:20 50.0 °F /  10 °C 48.1 °F /  8.9 °C 30.33 in /  1027 hPa Calm     93 % 0.00 in /  0 mm
23:04 49.0 °F /  9.4 °C 47.3 °F /  8.5 °C 30.32 in /  1026.6 hPa Calm     94 % 0.00 in /  0 mm
23:17 48.5 °F /  9.2 °C 46.9 °F /  8.3 °C 30.32 in /  1026.6 hPa Calm     94 % 0.00 in /  0 mm
23:28 47.8 °F /  8.8 °C 45.9 °F /  7.7 °C 30.32 in /  1026.6 hPa Calm     93 % 0.00 in /  0 mm
23:35 47.7 °F /  8.7 °C 46.1 °F /  7.8 °C 30.32 in /  1026.6 hPa Calm     94 % 0.00 in /  0 mm
23:50 47.2 °F /  8.4 °C 45.6 °F /  7.6 °C 30.32 in /  1026.6 hPa Calm     94 % 0.00 in /  0 mm
Park Place, Exeter, Tulare County, California, USA
Compliments of Weather Underground - 2 mb